sensor_id;sensor_type;location;lat;lon;timestamp;temperature;humidity
7046;DHT22;3564;53.326;10.356;2023-08-30T00:00:40;18.50;99.90
7046;DHT22;3564;53.326;10.356;2023-08-30T00:03:06;18.40;99.90
7046;DHT22;3564;53.326;10.356;2023-08-30T00:05:32;18.40;99.90
7046;DHT22;3564;53.326;10.356;2023-08-30T00:07:58;18.40;99.90
7046;DHT22;3564;53.326;10.356;2023-08-30T00:10:23;18.40;99.90
7046;DHT22;3564;53.326;10.356;2023-08-30T00:12:49;18.40;99.90
7046;DHT22;3564;53.326;10.356;2023-08-30T00:15:15;18.40;99.90
7046;DHT22;3564;53.326;10.356;2023-08-30T00:17:40;18.40;99.90
7046;DHT22;3564;53.326;10.356;2023-08-30T00:20:06;18.40;99.90
7046;DHT22;3564;53.326;10.356;2023-08-30T00:22:32;18.30;99.90
7046;DHT22;3564;53.326;10.356;2023-08-30T00:24:59;18.30;99.90
7046;DHT22;3564;53.326;10.356;2023-08-30T00:27:24;18.30;99.90
7046;DHT22;3564;53.326;10.356;2023-08-30T00:29:50;18.30;99.90
7046;DHT22;3564;53.326;10.356;2023-08-30T00:32:15;18.30;99.90
7046;DHT22;3564;53.326;10.356;2023-08-30T00:34:41;18.20;99.90
7046;DHT22;3564;53.326;10.356;2023-08-30T00:37:06;18.20;99.90
7046;DHT22;3564;53.326;10.356;2023-08-30T00:39:34;18.20;99.90
7046;DHT22;3564;53.326;10.356;2023-08-30T00:41:59;18.20;99.90
7046;DHT22;3564;53.326;10.356;2023-08-30T00:44:30;18.20;99.90
7046;DHT22;3564;53.326;10.356;2023-08-30T00:46:55;18.20;99.90
7046;DHT22;3564;53.326;10.356;2023-08-30T00:49:21;18.20;99.90
7046;DHT22;3564;53.326;10.356;2023-08-30T00:51:46;18.10;99.90
7046;DHT22;3564;53.326;10.356;2023-08-30T00:54:12;18.10;99.90
7046;DHT22;3564;53.326;10.356;2023-08-30T00:56:38;18.10;99.90
7046;DHT22;3564;53.326;10.356;2023-08-30T00:59:03;18.10;99.90
7046;DHT22;3564;53.326;10.356;2023-08-30T01:01:29;18.00;99.90
7046;DHT22;3564;53.326;10.356;2023-08-30T01:03:55;18.00;99.90
7046;DHT22;3564;53.326;10.356;2023-08-30T01:06:20;18.00;99.90
7046;DHT22;3564;53.326;10.356;2023-08-30T01:08:46;17.90;99.90
7046;DHT22;3564;53.326;10.356;2023-08-30T01:11:32;17.90;99.90
7046;DHT22;3564;53.326;10.356;2023-08-30T01:14:08;17.90;99.90
7046;DHT22;3564;53.326;10.356;2023-08-30T01:16:35;17.80;99.90
7046;DHT22;3564;53.326;10.356;2023-08-30T01:19:05;17.80;99.90
7046;DHT22;3564;53.326;10.356;2023-08-30T01:24:54;17.70;99.90
7046;DHT22;3564;53.326;10.356;2023-08-30T01:27:21;17.80;99.90
7046;DHT22;3564;53.326;10.356;2023-08-30T01:29:49;17.70;99.90
7046;DHT22;3564;53.326;10.356;2023-08-30T01:32:15;17.70;99.90
7046;DHT22;3564;53.326;10.356;2023-08-30T01:34:42;17.70;99.90
7046;DHT22;3564;53.326;10.356;2023-08-30T01:37:11;17.70;99.90
7046;DHT22;3564;53.326;10.356;2023-08-30T01:39:42;17.70;99.90
7046;DHT22;3564;53.326;10.356;2023-08-30T01:42:09;17.60;99.90
7046;DHT22;3564;53.326;10.356;2023-08-30T01:44:36;17.60;99.90
7046;DHT22;3564;53.326;10.356;2023-08-30T01:47:03;17.60;99.90
7046;DHT22;3564;53.326;10.356;2023-08-30T01:49:30;17.50;99.90
7046;DHT22;3564;53.326;10.356;2023-08-30T01:51:59;17.50;99.90
7046;DHT22;3564;53.326;10.356;2023-08-30T01:54:25;17.50;99.90
7046;DHT22;3564;53.326;10.356;2023-08-30T01:56:52;17.50;99.90
7046;DHT22;3564;53.326;10.356;2023-08-30T01:59:17;17.50;99.90
7046;DHT22;3564;53.326;10.356;2023-08-30T02:01:43;17.40;99.90
7046;DHT22;3564;53.326;10.356;2023-08-30T02:04:08;17.40;99.90
7046;DHT22;3564;53.326;10.356;2023-08-30T02:06:42;17.40;99.90
7046;DHT22;3564;53.326;10.356;2023-08-30T02:09:17;17.40;99.90
7046;DHT22;3564;53.326;10.356;2023-08-30T02:11:45;17.40;99.90
7046;DHT22;3564;53.326;10.356;2023-08-30T02:14:13;17.30;99.90
7046;DHT22;3564;53.326;10.356;2023-08-30T02:16:43;17.30;99.90
7046;DHT22;3564;53.326;10.356;2023-08-30T02:19:11;17.30;99.90
7046;DHT22;3564;53.326;10.356;2023-08-30T02:21:38;17.20;99.90
7046;DHT22;3564;53.326;10.356;2023-08-30T02:24:05;17.20;99.90
7046;DHT22;3564;53.326;10.356;2023-08-30T02:26:30;17.20;99.90
7046;DHT22;3564;53.326;10.356;2023-08-30T02:28:56;17.10;99.90
7046;DHT22;3564;53.326;10.356;2023-08-30T02:31:21;17.10;99.90
7046;DHT22;3564;53.326;10.356;2023-08-30T02:33:47;17.10;99.90
7046;DHT22;3564;53.326;10.356;2023-08-30T02:36:13;17.00;99.90
7046;DHT22;3564;53.326;10.356;2023-08-30T02:38:38;17.00;99.90
7046;DHT22;3564;53.326;10.356;2023-08-30T02:41:04;17.00;99.90
7046;DHT22;3564;53.326;10.356;2023-08-30T02:43:29;17.00;99.90
7046;DHT22;3564;53.326;10.356;2023-08-30T02:45:55;17.00;99.90
7046;DHT22;3564;53.326;10.356;2023-08-30T02:48:20;17.00;99.90
7046;DHT22;3564;53.326;10.356;2023-08-30T02:50:46;17.00;99.90
7046;DHT22;3564;53.326;10.356;2023-08-30T02:53:11;17.00;99.90
7046;DHT22;3564;53.326;10.356;2023-08-30T02:55:37;17.00;99.90
7046;DHT22;3564;53.326;10.356;2023-08-30T02:58:03;17.00;99.90
7046;DHT22;3564;53.326;10.356;2023-08-30T03:00:28;17.00;99.90
7046;DHT22;3564;53.326;10.356;2023-08-30T03:02:54;16.90;99.90
7046;DHT22;3564;53.326;10.356;2023-08-30T03:05:19;16.90;99.90
7046;DHT22;3564;53.326;10.356;2023-08-30T03:07:45;16.90;99.90
7046;DHT22;3564;53.326;10.356;2023-08-30T03:10:12;16.90;99.90
7046;DHT22;3564;53.326;10.356;2023-08-30T03:12:37;16.90;99.90
7046;DHT22;3564;53.326;10.356;2023-08-30T03:15:03;16.90;99.90
7046;DHT22;3564;53.326;10.356;2023-08-30T03:17:30;16.90;99.90
7046;DHT22;3564;53.326;10.356;2023-08-30T03:19:55;16.90;99.90
7046;DHT22;3564;53.326;10.356;2023-08-30T03:22:21;16.90;99.90
7046;DHT22;3564;53.326;10.356;2023-08-30T03:24:47;16.90;99.90
7046;DHT22;3564;53.326;10.356;2023-08-30T03:27:13;16.80;99.90
7046;DHT22;3564;53.326;10.356;2023-08-30T03:29:38;16.80;99.90
7046;DHT22;3564;53.326;10.356;2023-08-30T03:32:04;16.80;99.90
7046;DHT22;3564;53.326;10.356;2023-08-30T03:34:30;16.80;99.90
7046;DHT22;3564;53.326;10.356;2023-08-30T03:36:55;16.80;99.90
7046;DHT22;3564;53.326;10.356;2023-08-30T03:39:22;16.90;99.90
7046;DHT22;3564;53.326;10.356;2023-08-30T03:41:48;16.80;99.90
7046;DHT22;3564;53.326;10.356;2023-08-30T03:44:13;16.90;99.90
7046;DHT22;3564;53.326;10.356;2023-08-30T03:46:39;16.90;99.90
7046;DHT22;3564;53.326;10.356;2023-08-30T03:49:04;16.90;99.90
7046;DHT22;3564;53.326;10.356;2023-08-30T03:51:30;16.90;99.90
7046;DHT22;3564;53.326;10.356;2023-08-30T03:53:56;16.90;99.90
7046;DHT22;3564;53.326;10.356;2023-08-30T03:56:22;16.90;99.90
7046;DHT22;3564;53.326;10.356;2023-08-30T03:58:48;16.90;99.90
7046;DHT22;3564;53.326;10.356;2023-08-30T04:01:13;16.90;99.90
7046;DHT22;3564;53.326;10.356;2023-08-30T04:03:39;16.90;99.90
7046;DHT22;3564;53.326;10.356;2023-08-30T04:06:05;16.90;99.90
7046;DHT22;3564;53.326;10.356;2023-08-30T04:08:30;16.80;99.90
7046;DHT22;3564;53.326;10.356;2023-08-30T04:10:56;16.80;99.90
7046;DHT22;3564;53.326;10.356;2023-08-30T04:13:22;16.80;99.90
7046;DHT22;3564;53.326;10.356;2023-08-30T04:15:47;16.80;99.90
7046;DHT22;3564;53.326;10.356;2023-08-30T04:18:13;16.80;99.90
7046;DHT22;3564;53.326;10.356;2023-08-30T04:20:43;16.80;99.90
7046;DHT22;3564;53.326;10.356;2023-08-30T04:23:09;16.80;99.90
7046;DHT22;3564;53.326;10.356;2023-08-30T04:25:36;16.80;99.90
7046;DHT22;3564;53.326;10.356;2023-08-30T04:28:02;16.80;99.90
7046;DHT22;3564;53.326;10.356;2023-08-30T04:30:28;16.90;99.90
7046;DHT22;3564;53.326;10.356;2023-08-30T04:32:53;16.90;99.90
7046;DHT22;3564;53.326;10.356;2023-08-30T04:35:19;16.90;99.90
7046;DHT22;3564;53.326;10.356;2023-08-30T04:37:44;16.90;99.90
7046;DHT22;3564;53.326;10.356;2023-08-30T04:40:10;16.90;99.90
7046;DHT22;3564;53.326;10.356;2023-08-30T04:42:36;16.90;99.90
7046;DHT22;3564;53.326;10.356;2023-08-30T04:45:06;16.90;99.90
7046;DHT22;3564;53.326;10.356;2023-08-30T04:47:32;16.90;99.90
7046;DHT22;3564;53.326;10.356;2023-08-30T04:49:58;16.90;99.90
7046;DHT22;3564;53.326;10.356;2023-08-30T04:52:24;16.90;99.90
7046;DHT22;3564;53.326;10.356;2023-08-30T04:54:50;16.90;99.90
7046;DHT22;3564;53.326;10.356;2023-08-30T04:57:16;16.90;99.90
7046;DHT22;3564;53.326;10.356;2023-08-30T04:59:42;16.90;99.90
7046;DHT22;3564;53.326;10.356;2023-08-30T05:02:08;16.90;99.90
7046;DHT22;3564;53.326;10.356;2023-08-30T05:04:34;16.90;99.90
7046;DHT22;3564;53.326;10.356;2023-08-30T05:06:59;17.00;99.90
7046;DHT22;3564;53.326;10.356;2023-08-30T05:09:25;17.00;99.90
7046;DHT22;3564;53.326;10.356;2023-08-30T05:11:54;17.00;99.90
7046;DHT22;3564;53.326;10.356;2023-08-30T05:14:20;17.00;99.90
7046;DHT22;3564;53.326;10.356;2023-08-30T05:16:46;17.00;99.90
7046;DHT22;3564;53.326;10.356;2023-08-30T05:19:11;17.10;99.90
7046;DHT22;3564;53.326;10.356;2023-08-30T05:21:37;17.10;99.90
7046;DHT22;3564;53.326;10.356;2023-08-30T05:24:03;17.20;99.90
7046;DHT22;3564;53.326;10.356;2023-08-30T05:26:31;17.20;99.90
7046;DHT22;3564;53.326;10.356;2023-08-30T05:28:56;17.20;99.90
7046;DHT22;3564;53.326;10.356;2023-08-30T05:31:22;17.30;99.90
7046;DHT22;3564;53.326;10.356;2023-08-30T05:33:47;17.30;99.90
7046;DHT22;3564;53.326;10.356;2023-08-30T05:36:13;17.40;99.90
7046;DHT22;3564;53.326;10.356;2023-08-30T05:38:38;17.40;99.90
7046;DHT22;3564;53.326;10.356;2023-08-30T05:41:04;17.50;99.90
7046;DHT22;3564;53.326;10.356;2023-08-30T05:43:29;17.50;99.90
7046;DHT22;3564;53.326;10.356;2023-08-30T05:45:55;17.50;99.90
7046;DHT22;3564;53.326;10.356;2023-08-30T05:48:26;17.50;99.90
7046;DHT22;3564;53.326;10.356;2023-08-30T05:50:52;17.60;99.90
7046;DHT22;3564;53.326;10.356;2023-08-30T05:53:20;17.60;99.90
7046;DHT22;3564;53.326;10.356;2023-08-30T05:55:46;17.70;99.90
7046;DHT22;3564;53.326;10.356;2023-08-30T05:58:11;17.70;99.90
7046;DHT22;3564;53.326;10.356;2023-08-30T06:00:37;17.80;99.90
7046;DHT22;3564;53.326;10.356;2023-08-30T06:03:03;17.80;99.90
7046;DHT22;3564;53.326;10.356;2023-08-30T06:05:29;17.90;99.90
7046;DHT22;3564;53.326;10.356;2023-08-30T06:07:54;17.90;99.90
7046;DHT22;3564;53.326;10.356;2023-08-30T06:10:20;18.00;99.90
7046;DHT22;3564;53.326;10.356;2023-08-30T06:12:46;18.00;99.90
7046;DHT22;3564;53.326;10.356;2023-08-30T06:15:11;18.10;99.90
7046;DHT22;3564;53.326;10.356;2023-08-30T06:17:37;18.20;99.90
7046;DHT22;3564;53.326;10.356;2023-08-30T06:20:03;18.20;99.90
7046;DHT22;3564;53.326;10.356;2023-08-30T06:22:28;18.20;99.90
7046;DHT22;3564;53.326;10.356;2023-08-30T06:24:54;18.20;99.90
7046;DHT22;3564;53.326;10.356;2023-08-30T06:27:19;18.30;99.90
7046;DHT22;3564;53.326;10.356;2023-08-30T06:29:45;18.30;99.90
7046;DHT22;3564;53.326;10.356;2023-08-30T06:32:11;18.40;99.90
7046;DHT22;3564;53.326;10.356;2023-08-30T06:34:36;18.40;99.90
7046;DHT22;3564;53.326;10.356;2023-08-30T06:37:02;18.40;99.90
7046;DHT22;3564;53.326;10.356;2023-08-30T06:39:34;18.50;99.90
7046;DHT22;3564;53.326;10.356;2023-08-30T06:42:04;18.50;99.90
7046;DHT22;3564;53.326;10.356;2023-08-30T06:44:30;18.50;99.90
7046;DHT22;3564;53.326;10.356;2023-08-30T06:46:58;18.60;99.90
7046;DHT22;3564;53.326;10.356;2023-08-30T06:49:24;18.60;99.90
7046;DHT22;3564;53.326;10.356;2023-08-30T06:51:50;18.60;99.90
7046;DHT22;3564;53.326;10.356;2023-08-30T06:54:15;18.60;99.90
7046;DHT22;3564;53.326;10.356;2023-08-30T06:56:41;18.70;99.90
7046;DHT22;3564;53.326;10.356;2023-08-30T06:59:06;18.70;99.90
7046;DHT22;3564;53.326;10.356;2023-08-30T07:01:32;18.80;99.90
7046;DHT22;3564;53.326;10.356;2023-08-30T07:03:57;18.80;99.90
7046;DHT22;3564;53.326;10.356;2023-08-30T07:06:23;18.80;99.90
7046;DHT22;3564;53.326;10.356;2023-08-30T07:08:49;18.80;99.90
7046;DHT22;3564;53.326;10.356;2023-08-30T07:11:15;18.90;99.90
7046;DHT22;3564;53.326;10.356;2023-08-30T07:13:40;18.90;99.90
7046;DHT22;3564;53.326;10.356;2023-08-30T07:16:06;18.90;99.90
7046;DHT22;3564;53.326;10.356;2023-08-30T07:18:31;18.90;99.90
7046;DHT22;3564;53.326;10.356;2023-08-30T07:20:57;19.00;99.90
7046;DHT22;3564;53.326;10.356;2023-08-30T07:23:22;19.00;99.90
7046;DHT22;3564;53.326;10.356;2023-08-30T07:25:48;19.00;99.90
7046;DHT22;3564;53.326;10.356;2023-08-30T07:28:13;19.00;99.90
7046;DHT22;3564;53.326;10.356;2023-08-30T07:30:39;19.10;99.90
7046;DHT22;3564;53.326;10.356;2023-08-30T07:33:04;19.20;99.90
7046;DHT22;3564;53.326;10.356;2023-08-30T07:35:31;19.20;99.90
7046;DHT22;3564;53.326;10.356;2023-08-30T07:37:58;19.20;99.90
7046;DHT22;3564;53.326;10.356;2023-08-30T07:40:24;19.30;99.90
7046;DHT22;3564;53.326;10.356;2023-08-30T07:42:52;19.40;99.90
7046;DHT22;3564;53.326;10.356;2023-08-30T07:45:18;19.40;99.90
7046;DHT22;3564;53.326;10.356;2023-08-30T07:47:44;19.50;99.90
7046;DHT22;3564;53.326;10.356;2023-08-30T07:50:09;19.50;99.90
7046;DHT22;3564;53.326;10.356;2023-08-30T07:52:35;19.60;99.90
7046;DHT22;3564;53.326;10.356;2023-08-30T07:55:01;19.60;99.90
7046;DHT22;3564;53.326;10.356;2023-08-30T07:57:27;19.60;99.90
7046;DHT22;3564;53.326;10.356;2023-08-30T07:59:53;19.60;99.90
7046;DHT22;3564;53.326;10.356;2023-08-30T08:02:18;19.80;99.90
7046;DHT22;3564;53.326;10.356;2023-08-30T08:04:44;19.80;99.90
7046;DHT22;3564;53.326;10.356;2023-08-30T08:07:09;19.80;99.90
7046;DHT22;3564;53.326;10.356;2023-08-30T08:09:35;19.90;99.90
7046;DHT22;3564;53.326;10.356;2023-08-30T08:12:01;19.90;99.90
7046;DHT22;3564;53.326;10.356;2023-08-30T08:14:27;20.00;99.90
7046;DHT22;3564;53.326;10.356;2023-08-30T08:16:52;20.10;99.90
7046;DHT22;3564;53.326;10.356;2023-08-30T08:19:18;20.10;99.90
7046;DHT22;3564;53.326;10.356;2023-08-30T08:21:45;20.20;99.90
7046;DHT22;3564;53.326;10.356;2023-08-30T08:24:11;20.20;99.90
7046;DHT22;3564;53.326;10.356;2023-08-30T08:26:36;20.30;99.90
7046;DHT22;3564;53.326;10.356;2023-08-30T08:29:02;20.40;99.90
7046;DHT22;3564;53.326;10.356;2023-08-30T08:31:29;20.40;99.90
7046;DHT22;3564;53.326;10.356;2023-08-30T08:34:11;20.50;99.90
7046;DHT22;3564;53.326;10.356;2023-08-30T08:36:38;20.60;99.90
7046;DHT22;3564;53.326;10.356;2023-08-30T08:39:04;20.60;99.90
7046;DHT22;3564;53.326;10.356;2023-08-30T08:41:39;20.70;99.90
7046;DHT22;3564;53.326;10.356;2023-08-30T08:44:06;20.80;99.90
7046;DHT22;3564;53.326;10.356;2023-08-30T08:46:35;20.90;99.90
7046;DHT22;3564;53.326;10.356;2023-08-30T08:51:37;21.10;99.90
7046;DHT22;3564;53.326;10.356;2023-08-30T08:54:04;21.20;99.90
7046;DHT22;3564;53.326;10.356;2023-08-30T08:56:31;21.30;99.90
7046;DHT22;3564;53.326;10.356;2023-08-30T08:59:00;21.30;99.90
7046;DHT22;3564;53.326;10.356;2023-08-30T09:01:27;21.30;99.90
7046;DHT22;3564;53.326;10.356;2023-08-30T09:03:53;21.30;99.90
7046;DHT22;3564;53.326;10.356;2023-08-30T09:06:19;21.30;99.90
7046;DHT22;3564;53.326;10.356;2023-08-30T09:08:46;21.30;99.90
7046;DHT22;3564;53.326;10.356;2023-08-30T09:11:11;21.30;99.90
7046;DHT22;3564;53.326;10.356;2023-08-30T09:13:37;21.40;99.90
7046;DHT22;3564;53.326;10.356;2023-08-30T09:16:20;21.40;99.90
7046;DHT22;3564;53.326;10.356;2023-08-30T09:19:00;21.50;99.90
7046;DHT22;3564;53.326;10.356;2023-08-30T09:21:27;21.60;99.90
7046;DHT22;3564;53.326;10.356;2023-08-30T09:23:57;21.60;99.90
7046;DHT22;3564;53.326;10.356;2023-08-30T09:26:23;21.70;99.90
7046;DHT22;3564;53.326;10.356;2023-08-30T09:28:50;21.70;99.90
7046;DHT22;3564;53.326;10.356;2023-08-30T09:31:18;21.70;99.90
7046;DHT22;3564;53.326;10.356;2023-08-30T09:33:46;21.80;99.90
7046;DHT22;3564;53.326;10.356;2023-08-30T09:36:13;21.80;99.90
7046;DHT22;3564;53.326;10.356;2023-08-30T09:38:39;21.90;99.90
7046;DHT22;3564;53.326;10.356;2023-08-30T09:41:05;21.90;99.90
7046;DHT22;3564;53.326;10.356;2023-08-30T09:43:32;21.90;99.90
7046;DHT22;3564;53.326;10.356;2023-08-30T09:46:03;22.00;99.90
7046;DHT22;3564;53.326;10.356;2023-08-30T09:48:30;22.00;99.90
7046;DHT22;3564;53.326;10.356;2023-08-30T09:50:58;22.10;99.90
7046;DHT22;3564;53.326;10.356;2023-08-30T09:53:29;22.20;99.90
7046;DHT22;3564;53.326;10.356;2023-08-30T09:55:56;22.20;99.90
7046;DHT22;3564;53.326;10.356;2023-08-30T09:58:23;22.20;99.90
7046;DHT22;3564;53.326;10.356;2023-08-30T10:00:53;22.20;99.90
7046;DHT22;3564;53.326;10.356;2023-08-30T10:03:19;22.20;99.90
7046;DHT22;3564;53.326;10.356;2023-08-30T10:05:45;22.30;99.90
7046;DHT22;3564;53.326;10.356;2023-08-30T10:08:13;22.30;99.90
7046;DHT22;3564;53.326;10.356;2023-08-30T10:10:40;22.30;99.90
7046;DHT22;3564;53.326;10.356;2023-08-30T10:13:06;22.30;99.90
7046;DHT22;3564;53.326;10.356;2023-08-30T10:15:38;22.20;99.90
7046;DHT22;3564;53.326;10.356;2023-08-30T10:18:07;22.20;99.90
7046;DHT22;3564;53.326;10.356;2023-08-30T10:20:34;22.20;99.90
7046;DHT22;3564;53.326;10.356;2023-08-30T10:23:01;22.20;99.90
7046;DHT22;3564;53.326;10.356;2023-08-30T10:25:29;22.30;99.90
7046;DHT22;3564;53.326;10.356;2023-08-30T10:27:57;22.30;99.90
7046;DHT22;3564;53.326;10.356;2023-08-30T10:30:24;22.30;99.90
7046;DHT22;3564;53.326;10.356;2023-08-30T10:32:51;22.30;99.90
7046;DHT22;3564;53.326;10.356;2023-08-30T10:35:18;22.40;99.90
7046;DHT22;3564;53.326;10.356;2023-08-30T10:38:04;22.40;99.90
7046;DHT22;3564;53.326;10.356;2023-08-30T10:40:29;22.50;99.90
7046;DHT22;3564;53.326;10.356;2023-08-30T10:43:02;22.50;99.90
7046;DHT22;3564;53.326;10.356;2023-08-30T10:45:28;22.50;99.90
7046;DHT22;3564;53.326;10.356;2023-08-30T10:47:56;22.50;99.80
7046;DHT22;3564;53.326;10.356;2023-08-30T10:50:29;22.40;99.90
7046;DHT22;3564;53.326;10.356;2023-08-30T10:52:56;22.40;99.90
7046;DHT22;3564;53.326;10.356;2023-08-30T10:55:22;22.40;99.80
7046;DHT22;3564;53.326;10.356;2023-08-30T10:58:01;22.40;99.80
7046;DHT22;3564;53.326;10.356;2023-08-30T11:00:31;22.40;99.70
7046;DHT22;3564;53.326;10.356;2023-08-30T11:02:57;22.40;99.70
7046;DHT22;3564;53.326;10.356;2023-08-30T11:05:24;22.40;99.70
7046;DHT22;3564;53.326;10.356;2023-08-30T11:07:50;22.40;99.70
7046;DHT22;3564;53.326;10.356;2023-08-30T11:10:17;22.40;99.80
7046;DHT22;3564;53.326;10.356;2023-08-30T11:12:44;22.50;99.90
7046;DHT22;3564;53.326;10.356;2023-08-30T11:15:12;22.50;99.90
7046;DHT22;3564;53.326;10.356;2023-08-30T11:17:44;22.60;99.90
7046;DHT22;3564;53.326;10.356;2023-08-30T11:20:11;22.60;99.90
7046;DHT22;3564;53.326;10.356;2023-08-30T11:22:46;22.50;99.70
7046;DHT22;3564;53.326;10.356;2023-08-30T11:25:14;22.50;99.90
7046;DHT22;3564;53.326;10.356;2023-08-30T11:27:41;22.50;99.90
7046;DHT22;3564;53.326;10.356;2023-08-30T11:30:08;22.50;99.90
7046;DHT22;3564;53.326;10.356;2023-08-30T11:32:38;22.50;99.90
7046;DHT22;3564;53.326;10.356;2023-08-30T11:35:05;22.50;99.90
7046;DHT22;3564;53.326;10.356;2023-08-30T11:37:32;22.50;99.90
7046;DHT22;3564;53.326;10.356;2023-08-30T11:39:58;22.50;99.70
7046;DHT22;3564;53.326;10.356;2023-08-30T11:42:24;22.50;99.60
7046;DHT22;3564;53.326;10.356;2023-08-30T11:44:51;22.40;99.70
7046;DHT22;3564;53.326;10.356;2023-08-30T11:47:23;22.50;99.80
7046;DHT22;3564;53.326;10.356;2023-08-30T11:49:52;22.50;99.90
7046;DHT22;3564;53.326;10.356;2023-08-30T11:52:19;22.40;99.70
7046;DHT22;3564;53.326;10.356;2023-08-30T11:54:48;22.50;99.60
7046;DHT22;3564;53.326;10.356;2023-08-30T11:57:14;22.50;99.60
7046;DHT22;3564;53.326;10.356;2023-08-30T11:59:39;22.60;99.30
7046;DHT22;3564;53.326;10.356;2023-08-30T12:02:06;22.60;98.90
7046;DHT22;3564;53.326;10.356;2023-08-30T12:04:32;22.60;98.60
7046;DHT22;3564;53.326;10.356;2023-08-30T12:06:58;22.60;98.30
7046;DHT22;3564;53.326;10.356;2023-08-30T12:09:30;22.70;98.10
7046;DHT22;3564;53.326;10.356;2023-08-30T12:12:13;22.80;98.20
7046;DHT22;3564;53.326;10.356;2023-08-30T12:14:39;22.90;98.50
7046;DHT22;3564;53.326;10.356;2023-08-30T12:17:05;22.90;98.40
7046;DHT22;3564;53.326;10.356;2023-08-30T12:19:34;23.00;98.40
7046;DHT22;3564;53.326;10.356;2023-08-30T12:22:04;23.10;98.10
7046;DHT22;3564;53.326;10.356;2023-08-30T12:24:43;23.10;97.80
7046;DHT22;3564;53.326;10.356;2023-08-30T12:27:09;23.10;97.70
7046;DHT22;3564;53.326;10.356;2023-08-30T12:29:34;23.20;97.50
7046;DHT22;3564;53.326;10.356;2023-08-30T12:32:00;23.20;97.50
7046;DHT22;3564;53.326;10.356;2023-08-30T12:34:25;23.20;97.50
7046;DHT22;3564;53.326;10.356;2023-08-30T12:36:51;23.20;97.50
7046;DHT22;3564;53.326;10.356;2023-08-30T12:39:16;23.20;97.40
7046;DHT22;3564;53.326;10.356;2023-08-30T12:41:42;23.20;97.30
7046;DHT22;3564;53.326;10.356;2023-08-30T12:44:08;23.30;97.40
7046;DHT22;3564;53.326;10.356;2023-08-30T12:46:35;23.30;97.30
7046;DHT22;3564;53.326;10.356;2023-08-30T12:49:00;23.30;97.30
7046;DHT22;3564;53.326;10.356;2023-08-30T12:51:26;23.20;97.20
7046;DHT22;3564;53.326;10.356;2023-08-30T12:53:51;23.30;97.20
7046;DHT22;3564;53.326;10.356;2023-08-30T12:56:17;23.30;97.60
7046;DHT22;3564;53.326;10.356;2023-08-30T12:58:42;23.30;97.80
7046;DHT22;3564;53.326;10.356;2023-08-30T13:01:08;23.30;97.50
7046;DHT22;3564;53.326;10.356;2023-08-30T13:03:33;23.30;96.80
7046;DHT22;3564;53.326;10.356;2023-08-30T13:05:59;23.30;96.90
7046;DHT22;3564;53.326;10.356;2023-08-30T13:08:25;23.40;97.30
7046;DHT22;3564;53.326;10.356;2023-08-30T13:10:50;23.40;97.70
7046;DHT22;3564;53.326;10.356;2023-08-30T13:13:16;23.40;97.70
7046;DHT22;3564;53.326;10.356;2023-08-30T13:15:41;23.50;97.50
7046;DHT22;3564;53.326;10.356;2023-08-30T13:18:07;23.60;97.60
7046;DHT22;3564;53.326;10.356;2023-08-30T13:20:32;23.60;97.70
7046;DHT22;3564;53.326;10.356;2023-08-30T13:22:59;23.70;97.70
7046;DHT22;3564;53.326;10.356;2023-08-30T13:25:25;23.70;97.80
7046;DHT22;3564;53.326;10.356;2023-08-30T13:27:52;23.70;97.90
7046;DHT22;3564;53.326;10.356;2023-08-30T13:30:17;23.80;97.80
7046;DHT22;3564;53.326;10.356;2023-08-30T13:32:43;23.80;97.80
7046;DHT22;3564;53.326;10.356;2023-08-30T13:35:08;23.90;97.90
7046;DHT22;3564;53.326;10.356;2023-08-30T13:37:34;24.00;98.10
7046;DHT22;3564;53.326;10.356;2023-08-30T13:40:00;23.90;97.90
7046;DHT22;3564;53.326;10.356;2023-08-30T13:42:25;24.00;97.90
7046;DHT22;3564;53.326;10.356;2023-08-30T13:44:51;24.00;97.90
7046;DHT22;3564;53.326;10.356;2023-08-30T13:47:18;24.00;97.70
7046;DHT22;3564;53.326;10.356;2023-08-30T13:49:44;24.00;97.70
7046;DHT22;3564;53.326;10.356;2023-08-30T13:52:10;24.10;97.80
7046;DHT22;3564;53.326;10.356;2023-08-30T13:54:35;24.10;97.60
7046;DHT22;3564;53.326;10.356;2023-08-30T13:57:01;24.20;97.90
7046;DHT22;3564;53.326;10.356;2023-08-30T13:59:26;24.20;97.80
7046;DHT22;3564;53.326;10.356;2023-08-30T14:01:53;24.30;97.60
7046;DHT22;3564;53.326;10.356;2023-08-30T14:04:19;24.30;97.50
7046;DHT22;3564;53.326;10.356;2023-08-30T14:06:45;24.30;97.10
7046;DHT22;3564;53.326;10.356;2023-08-30T14:09:10;24.30;97.00
7046;DHT22;3564;53.326;10.356;2023-08-30T14:11:36;24.40;97.00
7046;DHT22;3564;53.326;10.356;2023-08-30T14:14:03;24.40;97.10
7046;DHT22;3564;53.326;10.356;2023-08-30T14:16:29;24.40;96.90
7046;DHT22;3564;53.326;10.356;2023-08-30T14:18:55;24.50;96.50
7046;DHT22;3564;53.326;10.356;2023-08-30T14:21:22;24.50;96.50
7046;DHT22;3564;53.326;10.356;2023-08-30T14:23:47;24.60;96.00
7046;DHT22;3564;53.326;10.356;2023-08-30T14:26:13;24.60;95.40
7046;DHT22;3564;53.326;10.356;2023-08-30T14:28:40;24.60;95.30
7046;DHT22;3564;53.326;10.356;2023-08-30T14:31:10;24.70;95.60
7046;DHT22;3564;53.326;10.356;2023-08-30T14:33:37;24.80;95.80
7046;DHT22;3564;53.326;10.356;2023-08-30T14:36:03;24.80;95.70
7046;DHT22;3564;53.326;10.356;2023-08-30T14:38:29;25.00;95.80
7046;DHT22;3564;53.326;10.356;2023-08-30T14:41:00;25.00;95.70
7046;DHT22;3564;53.326;10.356;2023-08-30T14:43:26;25.10;95.40
7046;DHT22;3564;53.326;10.356;2023-08-30T14:46:02;25.20;95.40
7046;DHT22;3564;53.326;10.356;2023-08-30T14:48:28;25.20;95.00
7046;DHT22;3564;53.326;10.356;2023-08-30T14:50:54;25.30;95.00
7046;DHT22;3564;53.326;10.356;2023-08-30T14:53:19;25.40;94.60
7046;DHT22;3564;53.326;10.356;2023-08-30T14:55:45;25.40;93.80
7046;DHT22;3564;53.326;10.356;2023-08-30T14:58:12;25.40;93.70
7046;DHT22;3564;53.326;10.356;2023-08-30T15:00:37;25.50;93.70
7046;DHT22;3564;53.326;10.356;2023-08-30T15:03:03;25.50;93.80
7046;DHT22;3564;53.326;10.356;2023-08-30T15:05:30;25.50;94.10
7046;DHT22;3564;53.326;10.356;2023-08-30T15:07:57;25.60;94.00
7046;DHT22;3564;53.326;10.356;2023-08-30T15:10:24;25.60;93.80
7046;DHT22;3564;53.326;10.356;2023-08-30T15:12:50;25.80;93.40
7046;DHT22;3564;53.326;10.356;2023-08-30T15:15:15;25.80;93.00
7046;DHT22;3564;53.326;10.356;2023-08-30T15:17:42;25.80;92.50
7046;DHT22;3564;53.326;10.356;2023-08-30T15:20:08;25.70;92.80
7046;DHT22;3564;53.326;10.356;2023-08-30T15:22:34;25.60;93.20
7046;DHT22;3564;53.326;10.356;2023-08-30T15:25:00;25.50;92.90
7046;DHT22;3564;53.326;10.356;2023-08-30T15:27:28;25.50;93.30
7046;DHT22;3564;53.326;10.356;2023-08-30T15:29:54;25.80;93.50
7046;DHT22;3564;53.326;10.356;2023-08-30T15:32:22;25.80;93.10
7046;DHT22;3564;53.326;10.356;2023-08-30T15:34:49;25.70;93.00
7046;DHT22;3564;53.326;10.356;2023-08-30T15:37:14;25.60;93.30
7046;DHT22;3564;53.326;10.356;2023-08-30T15:39:40;25.40;93.10
7046;DHT22;3564;53.326;10.356;2023-08-30T15:42:06;25.30;93.20
7046;DHT22;3564;53.326;10.356;2023-08-30T15:44:34;25.10;93.60
7046;DHT22;3564;53.326;10.356;2023-08-30T15:47:00;25.00;93.80